sensor_id;sensor_type;location;lat;lon;timestamp;P1;durP1;ratioP1;P2;durP2;ratioP2
19889;SDS011;10107;51.198;6.824;2023-08-07T00:01:09;7.15;;;1.90;;
19889;SDS011;10107;51.198;6.824;2023-08-07T00:05:11;6.57;;;2.13;;
19889;SDS011;10107;51.198;6.824;2023-08-07T00:09:12;7.25;;;2.33;;
19889;SDS011;10107;51.198;6.824;2023-08-07T00:13:14;8.98;;;1.90;;
19889;SDS011;10107;51.198;6.824;2023-08-07T00:17:17;6.15;;;2.17;;
19889;SDS011;10107;51.198;6.824;2023-08-07T00:21:19;5.82;;;1.92;;
19889;SDS011;10107;51.198;6.824;2023-08-07T00:25:21;5.60;;;2.13;;
19889;SDS011;10107;51.198;6.824;2023-08-07T00:29:23;4.00;;;2.00;;
19889;SDS011;10107;51.198;6.824;2023-08-07T00:33:26;7.75;;;2.13;;
19889;SDS011;10107;51.198;6.824;2023-08-07T00:37:27;9.50;;;2.63;;
19889;SDS011;10107;51.198;6.824;2023-08-07T00:41:29;4.80;;;1.92;;
19889;SDS011;10107;51.198;6.824;2023-08-07T00:45:33;5.63;;;2.25;;
19889;SDS011;10107;51.198;6.824;2023-08-07T00:49:39;6.15;;;1.88;;
19889;SDS011;10107;51.198;6.824;2023-08-07T00:53:41;5.18;;;2.03;;
19889;SDS011;10107;51.198;6.824;2023-08-07T00:57:43;6.15;;;1.75;;
19889;SDS011;10107;51.198;6.824;2023-08-07T01:01:45;6.40;;;2.13;;
19889;SDS011;10107;51.198;6.824;2023-08-07T01:05:48;5.72;;;2.05;;
19889;SDS011;10107;51.198;6.824;2023-08-07T01:09:50;6.22;;;2.28;;
19889;SDS011;10107;51.198;6.824;2023-08-07T01:13:55;3.38;;;1.92;;
19889;SDS011;10107;51.198;6.824;2023-08-07T01:18:02;6.45;;;2.20;;
19889;SDS011;10107;51.198;6.824;2023-08-07T01:22:08;7.25;;;2.17;;
19889;SDS011;10107;51.198;6.824;2023-08-07T01:26:12;6.75;;;2.40;;
19889;SDS011;10107;51.198;6.824;2023-08-07T01:30:17;5.35;;;2.08;;
19889;SDS011;10107;51.198;6.824;2023-08-07T01:34:22;7.13;;;2.20;;
19889;SDS011;10107;51.198;6.824;2023-08-07T01:38:28;7.25;;;2.35;;
19889;SDS011;10107;51.198;6.824;2023-08-07T01:42:31;5.72;;;2.20;;
19889;SDS011;10107;51.198;6.824;2023-08-07T01:46:33;5.63;;;2.58;;
19889;SDS011;10107;51.198;6.824;2023-08-07T01:50:35;7.85;;;2.38;;
19889;SDS011;10107;51.198;6.824;2023-08-07T01:54:40;8.82;;;2.83;;
19889;SDS011;10107;51.198;6.824;2023-08-07T01:58:42;7.50;;;2.57;;
19889;SDS011;10107;51.198;6.824;2023-08-07T02:02:44;11.32;;;2.72;;
19889;SDS011;10107;51.198;6.824;2023-08-07T02:06:46;9.38;;;3.00;;
19889;SDS011;10107;51.198;6.824;2023-08-07T02:10:50;8.35;;;2.80;;
19889;SDS011;10107;51.198;6.824;2023-08-07T02:14:51;8.00;;;2.90;;
19889;SDS011;10107;51.198;6.824;2023-08-07T02:18:53;7.57;;;2.70;;
19889;SDS011;10107;51.198;6.824;2023-08-07T02:22:55;5.82;;;2.03;;
19889;SDS011;10107;51.198;6.824;2023-08-07T02:26:58;5.75;;;2.28;;
19889;SDS011;10107;51.198;6.824;2023-08-07T02:31:00;8.03;;;2.50;;
19889;SDS011;10107;51.198;6.824;2023-08-07T02:35:01;5.53;;;2.63;;
19889;SDS011;10107;51.198;6.824;2023-08-07T02:39:03;7.05;;;2.70;;
19889;SDS011;10107;51.198;6.824;2023-08-07T02:43:06;8.57;;;2.53;;
19889;SDS011;10107;51.198;6.824;2023-08-07T02:47:10;8.35;;;2.92;;
19889;SDS011;10107;51.198;6.824;2023-08-07T02:51:12;6.45;;;2.35;;
19889;SDS011;10107;51.198;6.824;2023-08-07T02:55:14;8.18;;;2.60;;
19889;SDS011;10107;51.198;6.824;2023-08-07T02:59:17;7.60;;;2.20;;
19889;SDS011;10107;51.198;6.824;2023-08-07T03:03:19;11.30;;;3.07;;
19889;SDS011;10107;51.198;6.824;2023-08-07T03:07:20;7.47;;;2.45;;
19889;SDS011;10107;51.198;6.824;2023-08-07T03:11:22;6.70;;;2.78;;
19889;SDS011;10107;51.198;6.824;2023-08-07T03:15:25;5.38;;;2.65;;
19889;SDS011;10107;51.198;6.824;2023-08-07T03:19:27;6.43;;;2.13;;
19889;SDS011;10107;51.198;6.824;2023-08-07T03:23:28;7.10;;;2.58;;
19889;SDS011;10107;51.198;6.824;2023-08-07T03:27:33;11.15;;;3.25;;
19889;SDS011;10107;51.198;6.824;2023-08-07T03:31:36;7.75;;;2.50;;
19889;SDS011;10107;51.198;6.824;2023-08-07T03:35:37;4.03;;;1.97;;
19889;SDS011;10107;51.198;6.824;2023-08-07T03:39:40;6.63;;;2.58;;
19889;SDS011;10107;51.198;6.824;2023-08-07T03:43:43;6.30;;;2.65;;
19889;SDS011;10107;51.198;6.824;2023-08-07T03:47:47;6.95;;;2.80;;
19889;SDS011;10107;51.198;6.824;2023-08-07T03:51:49;4.75;;;2.63;;
19889;SDS011;10107;51.198;6.824;2023-08-07T03:55:50;6.10;;;2.53;;
19889;SDS011;10107;51.198;6.824;2023-08-07T03:59:55;9.02;;;2.90;;
19889;SDS011;10107;51.198;6.824;2023-08-07T04:03:58;5.40;;;2.50;;
19889;SDS011;10107;51.198;6.824;2023-08-07T04:08:00;6.82;;;2.33;;
19889;SDS011;10107;51.198;6.824;2023-08-07T04:12:02;8.60;;;2.75;;
19889;SDS011;10107;51.198;6.824;2023-08-07T04:16:05;11.20;;;3.37;;
19889;SDS011;10107;51.198;6.824;2023-08-07T04:20:08;7.40;;;2.65;;
19889;SDS011;10107;51.198;6.824;2023-08-07T04:24:12;8.20;;;2.85;;
19889;SDS011;10107;51.198;6.824;2023-08-07T04:28:14;7.93;;;3.08;;
19889;SDS011;10107;51.198;6.824;2023-08-07T04:32:16;8.23;;;3.10;;
19889;SDS011;10107;51.198;6.824;2023-08-07T04:36:19;9.05;;;2.90;;
19889;SDS011;10107;51.198;6.824;2023-08-07T04:40:21;4.80;;;2.50;;
19889;SDS011;10107;51.198;6.824;2023-08-07T04:44:24;8.57;;;3.00;;
19889;SDS011;10107;51.198;6.824;2023-08-07T04:48:26;9.68;;;3.05;;
19889;SDS011;10107;51.198;6.824;2023-08-07T04:52:30;6.53;;;2.83;;
19889;SDS011;10107;51.198;6.824;2023-08-07T04:56:32;7.25;;;2.88;;
19889;SDS011;10107;51.198;6.824;2023-08-07T05:00:33;7.05;;;2.88;;
19889;SDS011;10107;51.198;6.824;2023-08-07T05:04:35;6.40;;;2.70;;
19889;SDS011;10107;51.198;6.824;2023-08-07T05:08:38;8.32;;;2.80;;
19889;SDS011;10107;51.198;6.824;2023-08-07T05:12:40;5.80;;;2.42;;
19889;SDS011;10107;51.198;6.824;2023-08-07T05:16:42;6.50;;;2.50;;
19889;SDS011;10107;51.198;6.824;2023-08-07T05:20:43;8.32;;;3.22;;
19889;SDS011;10107;51.198;6.824;2023-08-07T05:24:46;7.28;;;2.63;;
19889;SDS011;10107;51.198;6.824;2023-08-07T05:32:50;7.18;;;3.28;;
19889;SDS011;10107;51.198;6.824;2023-08-07T05:36:54;8.85;;;3.22;;
19889;SDS011;10107;51.198;6.824;2023-08-07T05:40:57;7.47;;;3.35;;
19889;SDS011;10107;51.198;6.824;2023-08-07T05:45:00;7.65;;;3.50;;
19889;SDS011;10107;51.198;6.824;2023-08-07T05:49:02;7.95;;;3.60;;
19889;SDS011;10107;51.198;6.824;2023-08-07T05:53:03;11.40;;;3.75;;
19889;SDS011;10107;51.198;6.824;2023-08-07T05:57:07;9.57;;;3.75;;
19889;SDS011;10107;51.198;6.824;2023-08-07T06:01:08;8.63;;;3.17;;
19889;SDS011;10107;51.198;6.824;2023-08-07T06:05:10;9.85;;;3.67;;
19889;SDS011;10107;51.198;6.824;2023-08-07T06:09:13;8.93;;;3.38;;
19889;SDS011;10107;51.198;6.824;2023-08-07T06:13:17;7.43;;;3.13;;
19889;SDS011;10107;51.198;6.824;2023-08-07T06:17:19;9.60;;;3.70;;
19889;SDS011;10107;51.198;6.824;2023-08-07T06:21:20;7.95;;;3.38;;
19889;SDS011;10107;51.198;6.824;2023-08-07T06:25:23;9.23;;;3.50;;
19889;SDS011;10107;51.198;6.824;2023-08-07T06:29:26;8.07;;;3.47;;
19889;SDS011;10107;51.198;6.824;2023-08-07T06:33:28;6.55;;;3.20;;
19889;SDS011;10107;51.198;6.824;2023-08-07T06:37:30;8.05;;;3.53;;
19889;SDS011;10107;51.198;6.824;2023-08-07T06:41:31;6.68;;;3.25;;
19889;SDS011;10107;51.198;6.824;2023-08-07T06:45:34;6.35;;;3.22;;
19889;SDS011;10107;51.198;6.824;2023-08-07T06:49:36;6.43;;;3.50;;
19889;SDS011;10107;51.198;6.824;2023-08-07T06:53:38;6.50;;;3.03;;
19889;SDS011;10107;51.198;6.824;2023-08-07T06:57:42;7.35;;;3.10;;
19889;SDS011;10107;51.198;6.824;2023-08-07T07:01:45;6.65;;;3.03;;
19889;SDS011;10107;51.198;6.824;2023-08-07T07:05:48;6.80;;;3.72;;
19889;SDS011;10107;51.198;6.824;2023-08-07T07:09:51;5.88;;;2.70;;
19889;SDS011;10107;51.198;6.824;2023-08-07T07:13:53;6.47;;;3.20;;
19889;SDS011;10107;51.198;6.824;2023-08-07T07:17:56;7.20;;;3.15;;
19889;SDS011;10107;51.198;6.824;2023-08-07T07:21:57;7.87;;;3.30;;
19889;SDS011;10107;51.198;6.824;2023-08-07T07:26:00;5.43;;;3.03;;
19889;SDS011;10107;51.198;6.824;2023-08-07T07:30:04;5.45;;;2.88;;
19889;SDS011;10107;51.198;6.824;2023-08-07T07:34:08;7.73;;;3.43;;
19889;SDS011;10107;51.198;6.824;2023-08-07T07:38:10;5.10;;;2.43;;
19889;SDS011;10107;51.198;6.824;2023-08-07T07:42:12;6.80;;;3.33;;
19889;SDS011;10107;51.198;6.824;2023-08-07T07:46:13;8.77;;;3.53;;
19889;SDS011;10107;51.198;6.824;2023-08-07T07:50:16;7.72;;;3.10;;
19889;SDS011;10107;51.198;6.824;2023-08-07T07:54:18;6.10;;;2.60;;
19889;SDS011;10107;51.198;6.824;2023-08-07T07:58:20;9.57;;;3.50;;
19889;SDS011;10107;51.198;6.824;2023-08-07T08:02:22;9.68;;;3.20;;
19889;SDS011;10107;51.198;6.824;2023-08-07T08:06:25;7.78;;;3.47;;
19889;SDS011;10107;51.198;6.824;2023-08-07T08:10:27;9.13;;;3.88;;
19889;SDS011;10107;51.198;6.824;2023-08-07T08:14:29;7.78;;;3.38;;
19889;SDS011;10107;51.198;6.824;2023-08-07T08:18:30;10.50;;;4.00;;
19889;SDS011;10107;51.198;6.824;2023-08-07T08:22:33;9.20;;;3.45;;
19889;SDS011;10107;51.198;6.824;2023-08-07T08:26:35;8.63;;;3.50;;
19889;SDS011;10107;51.198;6.824;2023-08-07T08:30:37;8.82;;;3.35;;
19889;SDS011;10107;51.198;6.824;2023-08-07T08:34:38;7.50;;;3.30;;
19889;SDS011;10107;51.198;6.824;2023-08-07T08:38:41;7.50;;;2.88;;
19889;SDS011;10107;51.198;6.824;2023-08-07T08:42:43;6.00;;;2.77;;
19889;SDS011;10107;51.198;6.824;2023-08-07T08:46:46;9.23;;;2.93;;
19889;SDS011;10107;51.198;6.824;2023-08-07T08:50:53;5.78;;;2.60;;
19889;SDS011;10107;51.198;6.824;2023-08-07T08:54:57;4.00;;;2.15;;
19889;SDS011;10107;51.198;6.824;2023-08-07T08:59:00;4.72;;;1.80;;
19889;SDS011;10107;51.198;6.824;2023-08-07T09:03:02;2.78;;;1.85;;
19889;SDS011;10107;51.198;6.824;2023-08-07T09:07:04;4.68;;;1.58;;
19889;SDS011;10107;51.198;6.824;2023-08-07T09:11:09;2.53;;;1.77;;
19889;SDS011;10107;51.198;6.824;2023-08-07T09:15:12;3.92;;;1.60;;
19889;SDS011;10107;51.198;6.824;2023-08-07T09:19:17;4.13;;;1.55;;
19889;SDS011;10107;51.198;6.824;2023-08-07T09:27:24;5.28;;;2.40;;
19889;SDS011;10107;51.198;6.824;2023-08-07T09:31:26;5.68;;;1.55;;
19889;SDS011;10107;51.198;6.824;2023-08-07T09:35:29;6.43;;;2.67;;
19889;SDS011;10107;51.198;6.824;2023-08-07T09:43:37;4.63;;;1.75;;
19889;SDS011;10107;51.198;6.824;2023-08-07T09:47:39;4.20;;;1.98;;
19889;SDS011;10107;51.198;6.824;2023-08-07T09:51:41;5.68;;;2.10;;
19889;SDS011;10107;51.198;6.824;2023-08-07T09:55:44;3.40;;;1.75;;
19889;SDS011;10107;51.198;6.824;2023-08-07T09:59:47;4.45;;;2.15;;
19889;SDS011;10107;51.198;6.824;2023-08-07T10:03:50;4.03;;;1.73;;
19889;SDS011;10107;51.198;6.824;2023-08-07T10:07:54;7.10;;;2.15;;
19889;SDS011;10107;51.198;6.824;2023-08-07T10:16:01;4.22;;;1.90;;
19889;SDS011;10107;51.198;6.824;2023-08-07T10:20:05;4.93;;;2.13;;
19889;SDS011;10107;51.198;6.824;2023-08-07T10:24:09;6.60;;;1.83;;
19889;SDS011;10107;51.198;6.824;2023-08-07T10:28:12;10.07;;;2.08;;
19889;SDS011;10107;51.198;6.824;2023-08-07T10:32:19;4.10;;;1.80;;
19889;SDS011;10107;51.198;6.824;2023-08-07T10:36:22;4.95;;;1.80;;
19889;SDS011;10107;51.198;6.824;2023-08-07T10:40:24;5.15;;;1.92;;
19889;SDS011;10107;51.198;6.824;2023-08-07T10:44:29;4.45;;;1.55;;
19889;SDS011;10107;51.198;6.824;2023-08-07T10:48:43;5.90;;;1.40;;
19889;SDS011;10107;51.198;6.824;2023-08-07T10:56:52;5.10;;;1.92;;
19889;SDS011;10107;51.198;6.824;2023-08-07T11:05:23;2.83;;;1.30;;
19889;SDS011;10107;51.198;6.824;2023-08-07T11:09:26;4.10;;;1.42;;
19889;SDS011;10107;51.198;6.824;2023-08-07T11:13:29;6.13;;;1.50;;
19889;SDS011;10107;51.198;6.824;2023-08-07T11:17:31;2.97;;;1.40;;
19889;SDS011;10107;51.198;6.824;2023-08-07T11:21:34;4.18;;;1.52;;
19889;SDS011;10107;51.198;6.824;2023-08-07T11:25:36;2.78;;;1.25;;
19889;SDS011;10107;51.198;6.824;2023-08-07T11:29:38;2.13;;;1.38;;
19889;SDS011;10107;51.198;6.824;2023-08-07T11:33:40;2.92;;;1.40;;
19889;SDS011;10107;51.198;6.824;2023-08-07T11:37:46;2.08;;;1.00;;
19889;SDS011;10107;51.198;6.824;2023-08-07T11:41:50;2.95;;;1.38;;
19889;SDS011;10107;51.198;6.824;2023-08-07T11:45:52;3.40;;;1.40;;
19889;SDS011;10107;51.198;6.824;2023-08-07T11:49:54;3.00;;;1.48;;
19889;SDS011;10107;51.198;6.824;2023-08-07T11:53:57;4.72;;;1.73;;
19889;SDS011;10107;51.198;6.824;2023-08-07T11:57:59;4.07;;;1.60;;
19889;SDS011;10107;51.198;6.824;2023-08-07T12:02:08;4.72;;;1.52;;
19889;SDS011;10107;51.198;6.824;2023-08-07T12:06:11;2.92;;;1.45;;
19889;SDS011;10107;51.198;6.824;2023-08-07T12:10:14;3.42;;;1.48;;
19889;SDS011;10107;51.198;6.824;2023-08-07T12:14:16;4.00;;;1.40;;
19889;SDS011;10107;51.198;6.824;2023-08-07T12:18:18;4.38;;;1.75;;
19889;SDS011;10107;51.198;6.824;2023-08-07T12:22:20;3.40;;;1.30;;
19889;SDS011;10107;51.198;6.824;2023-08-07T12:26:23;2.60;;;1.35;;
19889;SDS011;10107;51.198;6.824;2023-08-07T12:30:25;3.55;;;1.40;;
19889;SDS011;10107;51.198;6.824;2023-08-07T12:34:27;3.72;;;1.48;;
19889;SDS011;10107;51.198;6.824;2023-08-07T12:38:28;4.85;;;2.00;;
19889;SDS011;10107;51.198;6.824;2023-08-07T12:42:31;2.85;;;1.60;;
19889;SDS011;10107;51.198;6.824;2023-08-07T12:46:33;2.83;;;1.30;;
19889;SDS011;10107;51.198;6.824;2023-08-07T12:50:37;3.45;;;1.40;;
19889;SDS011;10107;51.198;6.824;2023-08-07T12:54:38;3.80;;;1.63;;
19889;SDS011;10107;51.198;6.824;2023-08-07T12:58:41;2.35;;;1.33;;
19889;SDS011;10107;51.198;6.824;2023-08-07T13:02:43;3.05;;;1.35;;
19889;SDS011;10107;51.198;6.824;2023-08-07T13:06:47;3.13;;;1.35;;
19889;SDS011;10107;51.198;6.824;2023-08-07T13:10:49;1.80;;;1.38;;
19889;SDS011;10107;51.198;6.824;2023-08-07T13:14:53;2.13;;;1.10;;
19889;SDS011;10107;51.198;6.824;2023-08-07T13:18:54;4.63;;;1.88;;
19889;SDS011;10107;51.198;6.824;2023-08-07T13:22:56;2.47;;;2.00;;
19889;SDS011;10107;51.198;6.824;2023-08-07T13:26:57;3.33;;;1.63;;
19889;SDS011;10107;51.198;6.824;2023-08-07T13:31:00;2.65;;;1.73;;
19889;SDS011;10107;51.198;6.824;2023-08-07T13:35:02;3.13;;;1.80;;
19889;SDS011;10107;51.198;6.824;2023-08-07T13:39:06;3.35;;;1.50;;
19889;SDS011;10107;51.198;6.824;2023-08-07T13:43:09;2.38;;;1.40;;
19889;SDS011;10107;51.198;6.824;2023-08-07T13:47:12;2.70;;;1.40;;
19889;SDS011;10107;51.198;6.824;2023-08-07T13:51:14;3.22;;;1.80;;
19889;SDS011;10107;51.198;6.824;2023-08-07T13:55:16;3.60;;;1.30;;
19889;SDS011;10107;51.198;6.824;2023-08-07T13:59:18;2.78;;;1.27;;
19889;SDS011;10107;51.198;6.824;2023-08-07T14:03:24;3.20;;;1.30;;
19889;SDS011;10107;51.198;6.824;2023-08-07T14:07:26;2.10;;;1.40;;
19889;SDS011;10107;51.198;6.824;2023-08-07T14:11:27;2.50;;;1.35;;
19889;SDS011;10107;51.198;6.824;2023-08-07T14:15:31;2.95;;;1.42;;
19889;SDS011;10107;51.198;6.824;2023-08-07T14:19:34;3.80;;;1.27;;
19889;SDS011;10107;51.198;6.824;2023-08-07T14:23:35;1.73;;;1.25;;
19889;SDS011;10107;51.198;6.824;2023-08-07T14:27:37;2.40;;;1.58;;
19889;SDS011;10107;51.198;6.824;2023-08-07T14:31:39;3.83;;;1.58;;
19889;SDS011;10107;51.198;6.824;2023-08-07T14:35:42;2.25;;;1.60;;
19889;SDS011;10107;51.198;6.824;2023-08-07T14:39:44;2.75;;;1.80;;
19889;SDS011;10107;51.198;6.824;2023-08-07T14:43:46;2.15;;;1.70;;
19889;SDS011;10107;51.198;6.824;2023-08-07T14:47:48;2.53;;;1.60;;
19889;SDS011;10107;51.198;6.824;2023-08-07T14:51:51;4.68;;;2.03;;
19889;SDS011;10107;51.198;6.824;2023-08-07T14:55:53;3.70;;;1.90;;
19889;SDS011;10107;51.198;6.824;2023-08-07T14:59:54;3.40;;;1.90;;
19889;SDS011;10107;51.198;6.824;2023-08-07T15:03:56;3.83;;;1.77;;
19889;SDS011;10107;51.198;6.824;2023-08-07T15:07:59;4.13;;;2.08;;
19889;SDS011;10107;51.198;6.824;2023-08-07T15:12:01;3.13;;;1.90;;
19889;SDS011;10107;51.198;6.824;2023-08-07T15:16:04;5.78;;;2.20;;
19889;SDS011;10107;51.198;6.824;2023-08-07T15:20:06;4.22;;;2.00;;
19889;SDS011;10107;51.198;6.824;2023-08-07T15:24:10;2.75;;;1.70;;
19889;SDS011;10107;51.198;6.824;2023-08-07T15:28:12;3.22;;;1.92;;
19889;SDS011;10107;51.198;6.824;2023-08-07T15:32:13;3.20;;;1.70;;
19889;SDS011;10107;51.198;6.824;2023-08-07T15:36:18;3.72;;;1.75;;
19889;SDS011;10107;51.198;6.824;2023-08-07T15:40:22;2.20;;;1.63;;
19889;SDS011;10107;51.198;6.824;2023-08-07T15:48:25;2.58;;;1.98;;
19889;SDS011;10107;51.198;6.824;2023-08-07T15:52:27;2.15;;;1.70;;
19889;SDS011;10107;51.198;6.824;2023-08-07T15:56:30;3.47;;;1.95;;
19889;SDS011;10107;51.198;6.824;2023-08-07T16:00:32;3.40;;;1.53;;
19889;SDS011;10107;51.198;6.824;2023-08-07T16:04:35;3.05;;;2.20;;
19889;SDS011;10107;51.198;6.824;2023-08-07T16:08:37;2.90;;;1.90;;
19889;SDS011;10107;51.198;6.824;2023-08-07T16:12:40;2.72;;;1.80;;
19889;SDS011;10107;51.198;6.824;2023-08-07T16:16:41;4.03;;;1.80;;
19889;SDS011;10107;51.198;6.824;2023-08-07T16:20:43;2.40;;;1.98;;
19889;SDS011;10107;51.198;6.824;2023-08-07T16:24:45;3.40;;;1.90;;
19889;SDS011;10107;51.198;6.824;2023-08-07T16:28:49;3.67;;;1.92;;
19889;SDS011;10107;51.198;6.824;2023-08-07T16:32:50;3.10;;;1.80;;
19889;SDS011;10107;51.198;6.824;2023-08-07T16:36:52;4.30;;;1.80;;
19889;SDS011;10107;51.198;6.824;2023-08-07T16:40:53;2.60;;;1.70;;
19889;SDS011;10107;51.198;6.824;2023-08-07T16:44:56;2.55;;;1.80;;
19889;SDS011;10107;51.198;6.824;2023-08-07T16:48:58;4.07;;;1.70;;
19889;SDS011;10107;51.198;6.824;2023-08-07T16:53:00;3.95;;;1.73;;
19889;SDS011;10107;51.198;6.824;2023-08-07T16:57:02;2.78;;;1.90;;
19889;SDS011;10107;51.198;6.824;2023-08-07T17:01:05;2.67;;;1.70;;
19889;SDS011;10107;51.198;6.824;2023-08-07T17:05:07;2.63;;;1.50;;
19889;SDS011;10107;51.198;6.824;2023-08-07T17:09:09;2.33;;;1.70;;
19889;SDS011;10107;51.198;6.824;2023-08-07T17:13:11;2.00;;;1.35;;
19889;SDS011;10107;51.198;6.824;2023-08-07T17:17:14;2.58;;;1.40;;
19889;SDS011;10107;51.198;6.824;2023-08-07T17:21:15;2.70;;;1.73;;
19889;SDS011;10107;51.198;6.824;2023-08-07T17:25:17;2.20;;;1.50;;
19889;SDS011;10107;51.198;6.824;2023-08-07T17:29:19;2.15;;;1.73;;
19889;SDS011;10107;51.198;6.824;2023-08-07T17:33:22;2.00;;;1.60;;
19889;SDS011;10107;51.198;6.824;2023-08-07T17:37:24;2.55;;;1.30;;
19889;SDS011;10107;51.198;6.824;2023-08-07T17:41:26;2.17;;;1.58;;
19889;SDS011;10107;51.198;6.824;2023-08-07T17:45:27;2.45;;;1.60;;
19889;SDS011;10107;51.198;6.824;2023-08-07T17:49:30;5.30;;;1.73;;
19889;SDS011;10107;51.198;6.824;2023-08-07T17:53:34;2.42;;;1.73;;
19889;SDS011;10107;51.198;6.824;2023-08-07T17:57:35;3.10;;;1.80;;
19889;SDS011;10107;51.198;6.824;2023-08-07T18:01:37;2.22;;;1.80;;
19889;SDS011;10107;51.198;6.824;2023-08-07T18:05:40;3.67;;;1.80;;
19889;SDS011;10107;51.198;6.824;2023-08-07T18:09:42;2.28;;;1.70;;
19889;SDS011;10107;51.198;6.824;2023-08-07T18:13:44;2.25;;;1.65;;
19889;SDS011;10107;51.198;6.824;2023-08-07T18:17:46;3.17;;;1.77;;
19889;SDS011;10107;51.198;6.824;2023-08-07T18:21:49;2.10;;;1.50;;
19889;SDS011;10107;51.198;6.824;2023-08-07T18:25:50;1.57;;;1.07;;
19889;SDS011;10107;51.198;6.824;2023-08-07T18:29:52;2.40;;;1.90;;
19889;SDS011;10107;51.198;6.824;2023-08-07T18:33:54;1.90;;;1.58;;
19889;SDS011;10107;51.198;6.824;2023-08-07T18:37:57;2.08;;;1.80;;
19889;SDS011;10107;51.198;6.824;2023-08-07T18:41:59;3.33;;;1.73;;
19889;SDS011;10107;51.198;6.824;2023-08-07T18:46:01;3.70;;;1.60;;
19889;SDS011;10107;51.198;6.824;2023-08-07T18:50:03;2.38;;;2.00;;
19889;SDS011;10107;51.198;6.824;2023-08-07T18:54:07;2.50;;;1.90;;
19889;SDS011;10107;51.198;6.824;2023-08-07T18:58:09;2.60;;;1.83;;
19889;SDS011;10107;51.198;6.824;2023-08-07T19:02:11;2.22;;;1.80;;
19889;SDS011;10107;51.198;6.824;2023-08-07T19:06:14;2.13;;;1.73;;
19889;SDS011;10107;51.198;6.824;2023-08-07T19:10:18;1.95;;;1.52;;
19889;SDS011;10107;51.198;6.824;2023-08-07T19:14:19;3.00;;;2.13;;
19889;SDS011;10107;51.198;6.824;2023-08-07T19:18:21;2.90;;;1.80;;
19889;SDS011;10107;51.198;6.824;2023-08-07T19:22:27;2.78;;;1.80;;
19889;SDS011;10107;51.198;6.824;2023-08-07T19:26:32;2.75;;;1.95;;
19889;SDS011;10107;51.198;6.824;2023-08-07T19:30:35;3.17;;;1.83;;
19889;SDS011;10107;51.198;6.824;2023-08-07T19:34:37;2.10;;;1.55;;
19889;SDS011;10107;51.198;6.824;2023-08-07T19:38:42;2.15;;;1.67;;
19889;SDS011;10107;51.198;6.824;2023-08-07T19:42:46;2.60;;;1.80;;
19889;SDS011;10107;51.198;6.824;2023-08-07T19:46:48;2.45;;;1.55;;
19889;SDS011;10107;51.198;6.824;2023-08-07T19:50:51;2.38;;;1.73;;
19889;SDS011;10107;51.198;6.824;2023-08-07T19:55:01;2.63;;;1.60;;
19889;SDS011;10107;51.198;6.824;2023-08-07T19:59:05;2.45;;;1.70;;
19889;SDS011;10107;51.198;6.824;2023-08-07T20:03:08;2.03;;;1.70;;
19889;SDS011;10107;51.198;6.824;2023-08-07T20:07:11;1.33;;;1.23;;
19889;SDS011;10107;51.198;6.824;2023-08-07T20:11:13;2.40;;;1.80;;
19889;SDS011;10107;51.198;6.824;2023-08-07T20:15:17;1.73;;;1.40;;
19889;SDS011;10107;51.198;6.824;2023-08-07T20:19:20;3.08;;;1.60;;
19889;SDS011;10107;51.198;6.824;2023-08-07T20:23:23;3.92;;;1.52;;
19889;SDS011;10107;51.198;6.824;2023-08-07T20:27:25;2.28;;;1.27;;
19889;SDS011;10107;51.198;6.824;2023-08-07T20:31:28;2.00;;;1.48;;
19889;SDS011;10107;51.198;6.824;2023-08-07T20:35:30;2.53;;;1.58;;
19889;SDS011;10107;51.198;6.824;2023-08-07T20:39:31;3.08;;;1.80;;
19889;SDS011;10107;51.198;6.824;2023-08-07T20:43:33;1.50;;;1.38;;
19889;SDS011;10107;51.198;6.824;2023-08-07T20:47:39;2.78;;;1.40;;
19889;SDS011;10107;51.198;6.824;2023-08-07T20:51:41;2.00;;;1.48;;
19889;SDS011;10107;51.198;6.824;2023-08-07T20:55:43;1.50;;;1.30;;
19889;SDS011;10107;51.198;6.824;2023-08-07T20:59:44;2.25;;;1.45;;
19889;SDS011;10107;51.198;6.824;2023-08-07T21:03:47;2.25;;;1.60;;
19889;SDS011;10107;51.198;6.824;2023-08-07T21:07:49;2.07;;;1.50;;
19889;SDS011;10107;51.198;6.824;2023-08-07T21:11:51;2.47;;;1.50;;
19889;SDS011;10107;51.198;6.824;2023-08-07T21:15:53;1.70;;;1.30;;
19889;SDS011;10107;51.198;6.824;2023-08-07T21:19:58;2.00;;;1.50;;
19889;SDS011;10107;51.198;6.824;2023-08-07T21:24:00;2.28;;;1.67;;
19889;SDS011;10107;51.198;6.824;2023-08-07T21:28:02;2.03;;;1.30;;
19889;SDS011;10107;51.198;6.824;2023-08-07T21:32:06;2.47;;;1.60;;
19889;SDS011;10107;51.198;6.824;2023-08-07T21:36:09;2.20;;;1.60;;
19889;SDS011;10107;51.198;6.824;2023-08-07T21:40:11;3.47;;;1.65;;
19889;SDS011;10107;51.198;6.824;2023-08-07T21:44:16;2.33;;;1.50;;
19889;SDS011;10107;51.198;6.824;2023-08-07T21:48:17;1.70;;;1.42;;
19889;SDS011;10107;51.198;6.824;2023-08-07T21:52:21;2.42;;;1.85;;
19889;SDS011;10107;51.198;6.824;2023-08-07T21:56:22;1.67;;;1.02;;
19889;SDS011;10107;51.198;6.824;2023-08-07T22:00:24;3.08;;;1.80;;
19889;SDS011;10107;51.198;6.824;2023-08-07T22:04:26;2.55;;;1.60;;
19889;SDS011;10107;51.198;6.824;2023-08-07T22:08:29;2.83;;;1.60;;
19889;SDS011;10107;51.198;6.824;2023-08-07T22:16:33;2.13;;;1.60;;
19889;SDS011;10107;51.198;6.824;2023-08-07T22:20:35;2.35;;;1.83;;
19889;SDS011;10107;51.198;6.824;2023-08-07T22:24:38;2.75;;;1.70;;
19889;SDS011;10107;51.198;6.824;2023-08-07T22:28:40;1.98;;;1.48;;
19889;SDS011;10107;51.198;6.824;2023-08-07T22:32:42;2.38;;;1.88;;
19889;SDS011;10107;51.198;6.824;2023-08-07T22:36:45;1.33;;;1.13;;
19889;SDS011;10107;51.198;6.824;2023-08-07T22:40:48;2.15;;;1.60;;
19889;SDS011;10107;51.198;6.824;2023-08-07T22:44:49;1.88;;;1.33;;
19889;SDS011;10107;51.198;6.824;2023-08-07T22:48:51;2.03;;;1.75;;
19889;SDS011;10107;51.198;6.824;2023-08-07T22:52:53;3.00;;;1.67;;
19889;SDS011;10107;51.198;6.824;2023-08-07T22:56:57;2.28;;;1.70;;
19889;SDS011;10107;51.198;6.824;2023-08-07T23:00:58;2.37;;;1.70;;
19889;SDS011;10107;51.198;6.824;2023-08-07T23:05:00;2.92;;;2.05;;
19889;SDS011;10107;51.198;6.824;2023-08-07T23:09:03;2.33;;;1.67;;
19889;SDS011;10107;51.198;6.824;2023-08-07T23:13:07;2.90;;;1.88;;
19889;SDS011;10107;51.198;6.824;2023-08-07T23:17:09;3.42;;;1.77;;
19889;SDS011;10107;51.198;6.824;2023-08-07T23:21:11;1.77;;;1.58;;
19889;SDS011;10107;51.198;6.824;2023-08-07T23:25:13;2.30;;;1.60;;
19889;SDS011;10107;51.198;6.824;2023-08-07T23:29:16;1.88;;;1.60;;
19889;SDS011;10107;51.198;6.824;2023-08-07T23:33:19;3.08;;;2.08;;
19889;SDS011;10107;51.198;6.824;2023-08-07T23:37:22;2.20;;;1.70;;
19889;SDS011;10107;51.198;6.824;2023-08-07T23:41:23;3.17;;;1.70;;
19889;SDS011;10107;51.198;6.824;2023-08-07T23:45:28;5.43;;;1.80;;
19889;SDS011;10107;51.198;6.824;2023-08-07T23:49:29;2.95;;;1.25;;
19889;SDS011;10107;51.198;6.824;2023-08-07T23:53:32;2.90;;;1.75;;
19889;SDS011;10107;51.198;6.824;2023-08-07T23:57:34;1.77;;;1.58;;
